Map

Track Data

SID SEASON NUMBER BASIN SUBBASIN NAME ISO_TIME NATURE LAT LON WMO_WIND WMO_PRES WMO_AGENCY TRACK_TYPE DIST2LAND LANDFALL IFLAG USA_AGENCY USA_ATCF_ID USA_LAT USA_LON USA_RECORD USA_STATUS USA_WIND USA_PRES USA_SSHS USA_R34_NE USA_R34_SE USA_R34_SW USA_R34_NW USA_R50_NE USA_R50_SE USA_R50_SW USA_R50_NW USA_R64_NE USA_R64_SE USA_R64_SW USA_R64_NW USA_POCI USA_ROCI USA_RMW USA_EYE TOKYO_LAT TOKYO_LON TOKYO_GRADE TOKYO_WIND TOKYO_PRES TOKYO_R50_DIR TOKYO_R50_LONG TOKYO_R50_SHORT TOKYO_R30_DIR TOKYO_R30_LONG TOKYO_R30_SHORT TOKYO_LAND CMA_LAT CMA_LON CMA_CAT CMA_WIND CMA_PRES HKO_LAT HKO_LON HKO_CAT HKO_WIND HKO_PRES NEWDELHI_LAT NEWDELHI_LON NEWDELHI_GRADE NEWDELHI_WIND NEWDELHI_PRES NEWDELHI_CI NEWDELHI_DP NEWDELHI_POCI REUNION_LAT REUNION_LON REUNION_TYPE REUNION_WIND REUNION_PRES REUNION_TNUM REUNION_CI REUNION_RMW REUNION_R34_NE REUNION_R34_SE REUNION_R34_SW REUNION_R34_NW REUNION_R50_NE REUNION_R50_SE REUNION_R50_SW REUNION_R50_NW REUNION_R64_NE REUNION_R64_SE REUNION_R64_SW REUNION_R64_NW BOM_LAT BOM_LON BOM_TYPE BOM_WIND BOM_PRES BOM_TNUM BOM_CI BOM_RMW BOM_R34_NE BOM_R34_SE BOM_R34_SW BOM_R34_NW BOM_R50_NE BOM_R50_SE BOM_R50_SW BOM_R50_NW BOM_R64_NE BOM_R64_SE BOM_R64_SW BOM_R64_NW BOM_ROCI BOM_POCI BOM_EYE BOM_POS_METHOD BOM_PRES_METHOD NADI_LAT NADI_LON NADI_CAT NADI_WIND NADI_PRES WELLINGTON_LAT WELLINGTON_LON WELLINGTON_WIND WELLINGTON_PRES DS824_LAT DS824_LON DS824_STAGE DS824_WIND DS824_PRES TD9636_LAT TD9636_LON TD9636_STAGE TD9636_WIND TD9636_PRES TD9635_LAT TD9635_LON TD9635_WIND TD9635_PRES TD9635_ROCI NEUMANN_LAT NEUMANN_LON NEUMANN_CLASS NEUMANN_WIND NEUMANN_PRES MLC_LAT MLC_LON MLC_CLASS MLC_WIND MLC_PRES USA_GUST BOM_GUST BOM_GUST_PER REUNION_GUST REUNION_GUST_PER USA_SEAHGT USA_SEARAD_NE USA_SEARAD_SE USA_SEARAD_SW USA_SEARAD_NW STORM_SPEED STORM_DIR
1916163N21088 1916 30 NI BB NOT_NAMED 1916-06-10 15:00:00 NR 21.2000 88.2000 main 44 33 __________O___ -1 21.2000 88.2000 1 2 334
1916163N21088 1916 30 NI BB NOT_NAMED 1916-06-10 18:00:00 NR 21.2938 88.1688 main 33 24 __________P___ -1 21.2938 88.1688 1 2 342
1916163N21088 1916 30 NI BB NOT_NAMED 1916-06-10 21:00:00 NR 21.3800 88.1400 main 24 15 __________P___ -1 21.3800 88.1400 1 2 341
1916163N21088 1916 30 NI BB NOT_NAMED 1916-06-11 00:00:00 TS 21.4610 88.1130 main 15 15 _________OP___ -1 21.5000 88.1000 TC 30 21.4513 88.1163 1 1 344
1916163N21088 1916 30 NI BB NOT_NAMED 1916-06-11 03:00:00 TS 21.5000 88.1000 main 15 15 _________PO___ -1 21.5000 88.1000 TC 30 21.5000 88.1000 1 1 337
1916163N21088 1916 30 NI BB NOT_NAMED 1916-06-11 06:00:00 TS 21.5123 88.0959 main 15 15 _________OP___ -1 21.5000 88.1000 TC 30 21.5216 88.0928 1 0 0
1916163N21088 1916 30 NI BB NOT_NAMED 1916-06-11 09:00:00 TS 21.5112 88.0962 main 15 15 _________PP___ -1 21.5000 88.1000 TC 30 21.5225 88.0925 1 0 0
1916163N21088 1916 30 NI BB NOT_NAMED 1916-06-11 12:00:00 TS 21.5061 88.0980 main 15 15 _________OP___ -1 21.5000 88.1000 TC 30 21.5122 88.0959 1 0 0
1916163N21088 1916 30 NI BB NOT_NAMED 1916-06-11 15:00:00 TS 21.5000 88.1000 main 15 15 _________PO___ -1 21.5000 88.1000 TC 30 21.5000 88.1000 1 0 0
1916163N21088 1916 30 NI BB NOT_NAMED 1916-06-11 18:00:00 TS 21.4898 88.1020 main 15 15 _________OP___ -1 21.5000 88.1000 TC 30 21.4797 88.1040 1 0 0
1916163N21088 1916 30 NI BB NOT_NAMED 1916-06-11 21:00:00 TS 21.4737 88.1037 main 15 15 _________PP___ -1 21.4850 88.1000 TC 30 21.4625 88.1075 1 0 0
1916163N21088 1916 30 NI BB NOT_NAMED 1916-06-12 00:00:00 TS 21.4820 88.1036 main 15 15 _________OP___ -1 21.5000 88.1000 TC 30 21.4641 88.1072 1 1 18
1916163N21088 1916 30 NI BB NOT_NAMED 1916-06-12 03:00:00 TS 21.5387 88.1037 main 15 10 _________PO___ -1 21.5775 88.1075 TC 30 21.5000 88.1000 1 2 355
1916163N21088 1916 30 NI BB NOT_NAMED 1916-06-12 06:00:00 TS 21.6445 88.0972 main 10 10 _________OP___ -1 21.7000 88.1000 TC 30 21.5890 88.0943 1 2 353
1916163N21088 1916 30 NI BB NOT_NAMED 1916-06-12 09:00:00 TS 21.7775 88.0687 main 10 0 _________PP___ -1 21.8425 88.0575 TC 30 21.7125 88.0799 1 3 347
1916163N21088 1916 30 NI BB NOT_NAMED 1916-06-12 12:00:00 TS 21.9273 88.0253 main 0 0 _________OP___ -1 22.0000 88.0000 TC 30 21.8547 88.0505 1 3 345
1916163N21088 1916 30 NI BB NOT_NAMED 1916-06-12 15:00:00 TS 22.0787 87.9825 main 0 0 _________PO___ -1 22.1575 87.9650 TC 30 22.0000 88.0000 1 3 343
1916163N21088 1916 30 NI BB NOT_NAMED 1916-06-12 18:00:00 TS 22.2246 87.9251 main 0 0 _________OP___ -1 22.3000 87.9000 TC 30 22.1492 87.9501 1 3 333
1916163N21088 1916 30 NI BB NOT_NAMED 1916-06-12 21:00:00 TS 22.3586 87.8276 main 0 0 _________PP___ -1 22.4225 87.7800 TC 30 22.2947 87.8752 1 3 316
1916163N21088 1916 30 NI BB NOT_NAMED 1916-06-13 00:00:00 TS 22.4589 87.6813 main 0 0 _________OP___ -1 22.5000 87.6000 TC 30 22.4179 87.7627 1 4 296
1916163N21088 1916 30 NI BB NOT_NAMED 1916-06-13 03:00:00 TS 22.5112 87.4862 main 0 0 _________PO___ -1 22.5225 87.3725 TC 30 22.5000 87.6000 1 4 277
1916163N21088 1916 30 NI BB NOT_NAMED 1916-06-13 06:00:00 TS 22.5112 87.2355 main 0 0 _________OP___ -1 22.5000 87.1000 TC 30 22.5224 87.3711 1 5 266
1916163N21088 1916 30 NI BB NOT_NAMED 1916-06-13 09:00:00 TS 22.4802 86.9474 main 0 0 _________PP___ -1 22.4575 86.8000 TC 30 22.5028 87.0948 1 5 261
1916163N21088 1916 30 NI BB NOT_NAMED 1916-06-13 12:00:00 TS 22.4284 86.6480 main 0 0 _________OP___ -1 22.4000 86.5000 TC 30 22.4568 86.7961 1 5 259
1916163N21088 1916 30 NI BB NOT_NAMED 1916-06-13 15:00:00 TS 22.3750 86.3713 main 0 0 _________PO___ -1 22.3499 86.2425 TC 30 22.4000 86.5000 1 5 257
1916163N21088 1916 30 NI BB NOT_NAMED 1916-06-13 18:00:00 TS 22.3180 86.1436 main 0 0 _________OP___ -1 22.3000 86.0000 TC 30 22.3361 86.2872 1 4 253
1916163N21088 1916 30 NI BB NOT_NAMED 1916-06-13 21:00:00 TS 22.2517 85.9347 main 0 0 _________PP___ -1 22.2347 85.7949 TC 30 22.2687 86.0744 1 5 256
1916163N21088 1916 30 NI BB NOT_NAMED 1916-06-14 00:00:00 TS 22.2085 85.6622 main 0 0 _________OP___ -1 22.2000 85.5000 TC 30 22.2171 85.8245 1 6 267
1916163N21088 1916 30 NI BB NOT_NAMED 1916-06-14 03:00:00 TS 22.2139 85.2438 main 0 0 _________PO___ -1 22.2278 84.9875 TC 30 22.2000 85.5000 1 9 274
1916163N21088 1916 30 NI BB NOT_NAMED 1916-06-14 06:00:00 TS 22.2660 84.7150 main 0 0 _________OP___ -1 22.3000 84.4000 TC 30 22.2319 85.0300 1 10 278
1916163N21088 1916 30 NI BB NOT_NAMED 1916-06-14 09:00:00 TS 22.3457 84.1827 main 0 0 _________PP___ -1 22.3924 83.8775 TC 30 22.2989 84.4879 1 10 280
1916163N21088 1916 30 NI BB NOT_NAMED 1916-06-14 12:00:00 TS 22.4456 83.6634 main 0 0 _________OP___ -1 22.5000 83.4000 TC 30 22.3913 83.9268 1 9 282
1916163N21088 1916 30 NI BB NOT_NAMED 1916-06-14 15:00:00 TS 22.5462 83.1887 main 0 0 _________PO___ -1 22.5923 82.9774 TC 30 22.5000 83.4000 1 8 284
1916163N21088 1916 30 NI BB NOT_NAMED 1916-06-14 18:00:00 TS 22.6443 82.8148 main 0 0 _________OP___ -1 22.7000 82.6000 TC 30 22.5885 83.0295 1 7 289
1916163N21088 1916 30 NI BB NOT_NAMED 1916-06-14 21:00:00 TS 22.7609 82.4939 main 0 0 _________PP___ -1 22.8269 82.2946 TC 30 22.6949 82.6932 1 7 293
1916163N21088 1916 30 NI BB NOT_NAMED 1916-06-15 00:00:00 TS 22.9145 82.1177 main 0 0 _________OP___ -1 23.0000 81.9000 TC 30 22.8289 82.3354 1 9 293
1916163N21088 1916 30 NI BB NOT_NAMED 1916-06-15 03:00:00 TS 23.1177 81.5726 main 0 0 _________PO___ -1 23.2354 81.2452 TC 30 23.0000 81.9000 1 12 292
1916163N21088 1916 30 NI BB NOT_NAMED 1916-06-15 06:00:00 TS 23.3576 80.8959 main 0 0 _________OP___ -1 23.5000 80.5000 TC 30 23.2153 81.2918 1 13 291
1916163N21088 1916 30 NI BB NOT_NAMED 1916-06-15 09:00:00 TS 23.6070 80.2154 main 0 0 _________PP___ -1 23.7498 79.8273 TC 30 23.4642 80.6036 1 13 292
1916163N21088 1916 30 NI BB NOT_NAMED 1916-06-15 12:00:00 TS 23.8654 79.5442 main 0 0 _________OP___ -1 24.0000 79.2000 TC 30 23.7309 79.8884 1 13 294
1916163N21088 1916 30 NI BB NOT_NAMED 1916-06-15 15:00:00 TS 24.1248 78.9174 main 0 0 _________PO___ -1 24.2496 78.6347 TC 30 24.0000 79.2000 1 12 295
1916163N21088 1916 30 NI BB NOT_NAMED 1916-06-15 18:00:00 TS 24.3631 78.3743 main 0 0 _________OP___ -1 24.5000 78.1000 TC 30 24.2603 78.5800 1 11 296
1916163N21088 1916 30 NI AS NOT_NAMED 1916-06-15 21:00:00 TS 24.6075 77.8345 main 0 0 _________PP___ -1 24.7505 77.5555 TC 30 24.5121 78.0205 1 11 297
1916163N21088 1916 30 NI AS NOT_NAMED 1916-06-16 00:00:00 TS 24.8386 77.3338 main 0 0 _________OP___ -1 25.0000 77.0000 TC 30 24.7579 77.5008 1 9 297
1916163N21088 1916 30 NI AS NOT_NAMED 1916-06-16 03:00:00 NR 25.0000 77.0000 main 0 __________O___ -1 TC 25.0000 77.0000 1 7 298

About IBTrACS Database

This database is a web-friendly format of International Best Track Archive for Climate Stewardship (IBTrACS), a global best track data archive curated by NOAA dating back to 1842.

Updated: 2021-11-26